sensor_id;sensor_type;location;lat;lon;timestamp;temperature;humidity
4811;DHT22;2419;51.276;6.472;2024-03-29T00:00:11;8.70;99.90
4811;DHT22;2419;51.276;6.472;2024-03-29T00:02:40;8.70;99.90
4811;DHT22;2419;51.276;6.472;2024-03-29T00:05:07;8.70;99.90
4811;DHT22;2419;51.276;6.472;2024-03-29T00:07:33;8.60;99.90
4811;DHT22;2419;51.276;6.472;2024-03-29T00:09:59;8.60;99.90
4811;DHT22;2419;51.276;6.472;2024-03-29T00:12:27;8.50;99.90
4811;DHT22;2419;51.276;6.472;2024-03-29T00:14:53;8.50;99.90
4811;DHT22;2419;51.276;6.472;2024-03-29T00:17:19;8.50;99.90
4811;DHT22;2419;51.276;6.472;2024-03-29T00:19:45;8.50;99.90
4811;DHT22;2419;51.276;6.472;2024-03-29T00:22:12;8.60;99.90
4811;DHT22;2419;51.276;6.472;2024-03-29T00:24:38;8.50;99.90
4811;DHT22;2419;51.276;6.472;2024-03-29T00:27:04;8.50;99.90
4811;DHT22;2419;51.276;6.472;2024-03-29T00:29:32;8.50;99.90
4811;DHT22;2419;51.276;6.472;2024-03-29T00:31:58;8.50;99.90
4811;DHT22;2419;51.276;6.472;2024-03-29T00:34:24;8.50;99.90
4811;DHT22;2419;51.276;6.472;2024-03-29T00:36:51;8.60;99.90
4811;DHT22;2419;51.276;6.472;2024-03-29T00:39:17;8.50;99.90
4811;DHT22;2419;51.276;6.472;2024-03-29T00:41:43;8.40;99.90
4811;DHT22;2419;51.276;6.472;2024-03-29T00:44:09;8.50;99.90
4811;DHT22;2419;51.276;6.472;2024-03-29T00:46:37;8.40;99.90
4811;DHT22;2419;51.276;6.472;2024-03-29T00:49:03;8.20;99.90
4811;DHT22;2419;51.276;6.472;2024-03-29T00:51:29;8.20;99.90
4811;DHT22;2419;51.276;6.472;2024-03-29T00:53:55;8.20;99.90
4811;DHT22;2419;51.276;6.472;2024-03-29T00:56:21;8.20;99.90
4811;DHT22;2419;51.276;6.472;2024-03-29T00:58:47;8.10;99.90
4811;DHT22;2419;51.276;6.472;2024-03-29T01:01:14;7.90;99.90
4811;DHT22;2419;51.276;6.472;2024-03-29T01:03:41;7.70;99.90
4811;DHT22;2419;51.276;6.472;2024-03-29T01:06:07;7.70;99.90
4811;DHT22;2419;51.276;6.472;2024-03-29T01:08:34;7.70;99.90
4811;DHT22;2419;51.276;6.472;2024-03-29T01:11:00;7.70;99.90
4811;DHT22;2419;51.276;6.472;2024-03-29T01:13:26;7.80;99.90
4811;DHT22;2419;51.276;6.472;2024-03-29T01:15:52;7.80;99.90
4811;DHT22;2419;51.276;6.472;2024-03-29T01:18:18;7.80;99.90
4811;DHT22;2419;51.276;6.472;2024-03-29T01:20:46;7.80;99.90
4811;DHT22;2419;51.276;6.472;2024-03-29T01:23:12;8.00;99.90
4811;DHT22;2419;51.276;6.472;2024-03-29T01:25:38;7.90;99.90
4811;DHT22;2419;51.276;6.472;2024-03-29T01:28:05;7.80;99.90
4811;DHT22;2419;51.276;6.472;2024-03-29T01:30:31;7.80;99.90
4811;DHT22;2419;51.276;6.472;2024-03-29T01:32:57;7.80;99.90
4811;DHT22;2419;51.276;6.472;2024-03-29T01:35:23;7.80;99.90
4811;DHT22;2419;51.276;6.472;2024-03-29T01:37:51;7.80;99.90
4811;DHT22;2419;51.276;6.472;2024-03-29T01:40:17;7.90;99.90
4811;DHT22;2419;51.276;6.472;2024-03-29T01:42:43;7.90;99.90
4811;DHT22;2419;51.276;6.472;2024-03-29T01:45:09;8.00;99.90
4811;DHT22;2419;51.276;6.472;2024-03-29T01:47:37;8.00;99.90
4811;DHT22;2419;51.276;6.472;2024-03-29T01:50:05;8.10;99.90
4811;DHT22;2419;51.276;6.472;2024-03-29T01:52:32;8.10;99.90
4811;DHT22;2419;51.276;6.472;2024-03-29T01:55:01;8.20;99.90
4811;DHT22;2419;51.276;6.472;2024-03-29T01:57:28;8.20;99.90
4811;DHT22;2419;51.276;6.472;2024-03-29T01:59:56;8.30;99.90
4811;DHT22;2419;51.276;6.472;2024-03-29T02:02:24;8.50;99.90
4811;DHT22;2419;51.276;6.472;2024-03-29T02:04:51;8.40;99.90
4811;DHT22;2419;51.276;6.472;2024-03-29T02:07:18;8.50;99.90
4811;DHT22;2419;51.276;6.472;2024-03-29T02:09:46;8.60;99.90
4811;DHT22;2419;51.276;6.472;2024-03-29T02:12:14;8.60;99.90
4811;DHT22;2419;51.276;6.472;2024-03-29T02:14:41;8.60;99.90
4811;DHT22;2419;51.276;6.472;2024-03-29T02:17:08;8.70;99.90
4811;DHT22;2419;51.276;6.472;2024-03-29T02:19:35;8.80;99.90
4811;DHT22;2419;51.276;6.472;2024-03-29T02:22:04;8.80;99.90
4811;DHT22;2419;51.276;6.472;2024-03-29T02:24:33;8.80;99.90
4811;DHT22;2419;51.276;6.472;2024-03-29T02:27:01;8.80;99.90
4811;DHT22;2419;51.276;6.472;2024-03-29T02:29:30;8.80;99.90
4811;DHT22;2419;51.276;6.472;2024-03-29T02:31:57;8.90;99.90
4811;DHT22;2419;51.276;6.472;2024-03-29T02:34:24;8.90;99.90
4811;DHT22;2419;51.276;6.472;2024-03-29T02:36:51;8.90;99.90
4811;DHT22;2419;51.276;6.472;2024-03-29T02:39:18;8.90;99.90
4811;DHT22;2419;51.276;6.472;2024-03-29T02:41:47;9.00;99.90
4811;DHT22;2419;51.276;6.472;2024-03-29T02:44:14;8.90;99.90
4811;DHT22;2419;51.276;6.472;2024-03-29T02:46:41;8.90;99.90
4811;DHT22;2419;51.276;6.472;2024-03-29T02:49:09;8.80;99.90
4811;DHT22;2419;51.276;6.472;2024-03-29T02:51:35;8.70;99.90
4811;DHT22;2419;51.276;6.472;2024-03-29T02:54:02;8.70;99.90
4811;DHT22;2419;51.276;6.472;2024-03-29T02:56:29;8.70;99.90
4811;DHT22;2419;51.276;6.472;2024-03-29T02:58:58;8.70;99.90
4811;DHT22;2419;51.276;6.472;2024-03-29T03:01:25;8.70;99.90
4811;DHT22;2419;51.276;6.472;2024-03-29T03:03:51;8.70;99.90
4811;DHT22;2419;51.276;6.472;2024-03-29T03:06:18;8.70;99.90
4811;DHT22;2419;51.276;6.472;2024-03-29T03:08:44;8.80;99.90
4811;DHT22;2419;51.276;6.472;2024-03-29T03:11:29;8.90;99.90
4811;DHT22;2419;51.276;6.472;2024-03-29T03:13:57;8.80;99.90
4811;DHT22;2419;51.276;6.472;2024-03-29T03:16:23;8.80;99.90
4811;DHT22;2419;51.276;6.472;2024-03-29T03:18:51;8.80;99.90
4811;DHT22;2419;51.276;6.472;2024-03-29T03:21:17;8.80;99.90
4811;DHT22;2419;51.276;6.472;2024-03-29T03:23:44;8.90;99.90
4811;DHT22;2419;51.276;6.472;2024-03-29T03:26:11;8.90;99.90
4811;DHT22;2419;51.276;6.472;2024-03-29T03:28:37;8.90;99.90
4811;DHT22;2419;51.276;6.472;2024-03-29T03:31:05;8.90;99.90
4811;DHT22;2419;51.276;6.472;2024-03-29T03:33:33;8.80;99.90
4811;DHT22;2419;51.276;6.472;2024-03-29T03:36:00;8.90;99.90
4811;DHT22;2419;51.276;6.472;2024-03-29T03:38:26;8.90;99.90
4811;DHT22;2419;51.276;6.472;2024-03-29T03:40:53;8.90;99.90
4811;DHT22;2419;51.276;6.472;2024-03-29T03:43:19;8.90;99.90
4811;DHT22;2419;51.276;6.472;2024-03-29T03:45:46;8.90;99.90
4811;DHT22;2419;51.276;6.472;2024-03-29T03:48:15;8.90;99.90
4811;DHT22;2419;51.276;6.472;2024-03-29T03:50:42;8.90;99.90
4811;DHT22;2419;51.276;6.472;2024-03-29T03:53:08;8.90;99.90
4811;DHT22;2419;51.276;6.472;2024-03-29T03:55:36;8.90;99.90
4811;DHT22;2419;51.276;6.472;2024-03-29T03:58:02;8.90;99.90
4811;DHT22;2419;51.276;6.472;2024-03-29T04:00:30;8.80;99.90
4811;DHT22;2419;51.276;6.472;2024-03-29T04:02:56;8.80;99.90
4811;DHT22;2419;51.276;6.472;2024-03-29T04:05:24;8.80;99.90
4811;DHT22;2419;51.276;6.472;2024-03-29T04:07:51;8.80;99.90
4811;DHT22;2419;51.276;6.472;2024-03-29T04:10:19;8.80;99.90
4811;DHT22;2419;51.276;6.472;2024-03-29T04:12:45;8.70;99.90
4811;DHT22;2419;51.276;6.472;2024-03-29T04:15:12;8.60;99.90
4811;DHT22;2419;51.276;6.472;2024-03-29T04:17:38;8.60;99.90
4811;DHT22;2419;51.276;6.472;2024-03-29T04:20:05;8.50;99.90
4811;DHT22;2419;51.276;6.472;2024-03-29T04:22:33;8.50;99.90
4811;DHT22;2419;51.276;6.472;2024-03-29T04:25:00;8.40;99.90
4811;DHT22;2419;51.276;6.472;2024-03-29T04:27:26;8.50;99.90
4811;DHT22;2419;51.276;6.472;2024-03-29T04:29:54;8.60;99.90
4811;DHT22;2419;51.276;6.472;2024-03-29T04:32:20;8.80;99.90
4811;DHT22;2419;51.276;6.472;2024-03-29T04:34:48;8.70;99.90
4811;DHT22;2419;51.276;6.472;2024-03-29T04:37:14;8.70;99.90
4811;DHT22;2419;51.276;6.472;2024-03-29T04:39:44;8.70;99.90
4811;DHT22;2419;51.276;6.472;2024-03-29T04:42:12;8.60;99.90
4811;DHT22;2419;51.276;6.472;2024-03-29T04:44:40;8.50;99.90
4811;DHT22;2419;51.276;6.472;2024-03-29T04:47:08;8.50;99.90
4811;DHT22;2419;51.276;6.472;2024-03-29T04:49:35;8.50;99.90
4811;DHT22;2419;51.276;6.472;2024-03-29T04:52:03;8.50;99.90
4811;DHT22;2419;51.276;6.472;2024-03-29T04:54:30;8.40;99.90
4811;DHT22;2419;51.276;6.472;2024-03-29T04:56:59;8.40;99.90
4811;DHT22;2419;51.276;6.472;2024-03-29T04:59:27;8.30;99.90
4811;DHT22;2419;51.276;6.472;2024-03-29T05:01:54;8.30;99.90
4811;DHT22;2419;51.276;6.472;2024-03-29T05:04:22;8.30;99.90
4811;DHT22;2419;51.276;6.472;2024-03-29T05:06:52;8.20;99.90
4811;DHT22;2419;51.276;6.472;2024-03-29T05:09:20;8.30;99.90
4811;DHT22;2419;51.276;6.472;2024-03-29T05:11:47;8.20;99.90
4811;DHT22;2419;51.276;6.472;2024-03-29T05:14:16;8.20;99.90
4811;DHT22;2419;51.276;6.472;2024-03-29T05:16:45;8.20;99.90
4811;DHT22;2419;51.276;6.472;2024-03-29T05:19:13;8.20;99.90
4811;DHT22;2419;51.276;6.472;2024-03-29T05:21:40;8.20;99.90
4811;DHT22;2419;51.276;6.472;2024-03-29T05:24:08;8.20;99.90
4811;DHT22;2419;51.276;6.472;2024-03-29T05:26:35;8.20;99.90
4811;DHT22;2419;51.276;6.472;2024-03-29T05:29:02;8.20;99.90
4811;DHT22;2419;51.276;6.472;2024-03-29T05:31:31;8.20;99.90
4811;DHT22;2419;51.276;6.472;2024-03-29T05:33:58;8.20;99.90
4811;DHT22;2419;51.276;6.472;2024-03-29T05:36:27;8.20;99.90
4811;DHT22;2419;51.276;6.472;2024-03-29T05:38:54;8.10;99.90
4811;DHT22;2419;51.276;6.472;2024-03-29T05:41:21;8.10;99.90
4811;DHT22;2419;51.276;6.472;2024-03-29T05:43:49;8.20;99.90
4811;DHT22;2419;51.276;6.472;2024-03-29T05:46:16;8.20;99.90
4811;DHT22;2419;51.276;6.472;2024-03-29T05:48:45;8.20;99.90
4811;DHT22;2419;51.276;6.472;2024-03-29T05:51:12;8.20;99.90
4811;DHT22;2419;51.276;6.472;2024-03-29T05:53:40;8.20;99.90
4811;DHT22;2419;51.276;6.472;2024-03-29T05:56:07;8.10;99.90
4811;DHT22;2419;51.276;6.472;2024-03-29T05:58:34;8.10;99.90
4811;DHT22;2419;51.276;6.472;2024-03-29T06:01:01;8.10;99.90
4811;DHT22;2419;51.276;6.472;2024-03-29T06:03:28;8.10;99.90
4811;DHT22;2419;51.276;6.472;2024-03-29T06:05:57;8.20;99.90
4811;DHT22;2419;51.276;6.472;2024-03-29T06:08:24;8.20;99.90
4811;DHT22;2419;51.276;6.472;2024-03-29T06:10:53;8.20;99.90
4811;DHT22;2419;51.276;6.472;2024-03-29T06:13:20;8.10;99.90
4811;DHT22;2419;51.276;6.472;2024-03-29T06:16:16;8.20;99.90
4811;DHT22;2419;51.276;6.472;2024-03-29T06:19:01;8.20;99.90
4811;DHT22;2419;51.276;6.472;2024-03-29T06:21:30;8.30;99.90
4811;DHT22;2419;51.276;6.472;2024-03-29T06:24:05;8.30;99.90
4811;DHT22;2419;51.276;6.472;2024-03-29T06:26:32;8.30;99.90
4811;DHT22;2419;51.276;6.472;2024-03-29T06:29:00;8.40;99.90
4811;DHT22;2419;51.276;6.472;2024-03-29T06:31:27;8.40;99.90
4811;DHT22;2419;51.276;6.472;2024-03-29T06:33:55;8.40;99.90
4811;DHT22;2419;51.276;6.472;2024-03-29T06:36:22;8.30;99.90
4811;DHT22;2419;51.276;6.472;2024-03-29T06:38:50;8.30;99.90
4811;DHT22;2419;51.276;6.472;2024-03-29T06:41:17;8.30;99.90
4811;DHT22;2419;51.276;6.472;2024-03-29T06:43:45;8.20;99.90
4811;DHT22;2419;51.276;6.472;2024-03-29T06:46:12;8.30;99.90
4811;DHT22;2419;51.276;6.472;2024-03-29T06:48:40;8.30;99.90
4811;DHT22;2419;51.276;6.472;2024-03-29T06:51:07;8.30;99.90
4811;DHT22;2419;51.276;6.472;2024-03-29T06:53:34;8.40;99.90
4811;DHT22;2419;51.276;6.472;2024-03-29T06:56:03;8.40;99.90
4811;DHT22;2419;51.276;6.472;2024-03-29T06:58:31;8.40;99.90
4811;DHT22;2419;51.276;6.472;2024-03-29T07:00:58;8.40;99.90
4811;DHT22;2419;51.276;6.472;2024-03-29T07:03:25;8.40;99.90
4811;DHT22;2419;51.276;6.472;2024-03-29T07:05:52;8.50;99.90
4811;DHT22;2419;51.276;6.472;2024-03-29T07:08:19;8.60;99.90
4811;DHT22;2419;51.276;6.472;2024-03-29T07:10:46;8.60;99.90
4811;DHT22;2419;51.276;6.472;2024-03-29T07:13:15;8.60;99.90
4811;DHT22;2419;51.276;6.472;2024-03-29T07:15:50;8.60;99.90
4811;DHT22;2419;51.276;6.472;2024-03-29T07:18:18;8.60;99.90
4811;DHT22;2419;51.276;6.472;2024-03-29T07:20:45;8.60;99.90
4811;DHT22;2419;51.276;6.472;2024-03-29T07:23:12;8.60;99.90
4811;DHT22;2419;51.276;6.472;2024-03-29T07:25:40;8.60;99.90
4811;DHT22;2419;51.276;6.472;2024-03-29T07:28:07;8.60;99.90
4811;DHT22;2419;51.276;6.472;2024-03-29T07:30:37;8.60;99.90
4811;DHT22;2419;51.276;6.472;2024-03-29T07:33:05;8.60;99.90
4811;DHT22;2419;51.276;6.472;2024-03-29T07:35:32;8.60;99.90
4811;DHT22;2419;51.276;6.472;2024-03-29T07:37:59;8.60;99.90
4811;DHT22;2419;51.276;6.472;2024-03-29T07:40:26;8.60;99.90
4811;DHT22;2419;51.276;6.472;2024-03-29T07:42:53;8.60;99.90
4811;DHT22;2419;51.276;6.472;2024-03-29T07:45:20;8.60;99.90
4811;DHT22;2419;51.276;6.472;2024-03-29T07:47:49;8.60;99.90
4811;DHT22;2419;51.276;6.472;2024-03-29T07:50:18;8.60;99.90
4811;DHT22;2419;51.276;6.472;2024-03-29T07:52:45;8.60;99.90
4811;DHT22;2419;51.276;6.472;2024-03-29T07:55:12;8.80;99.90
4811;DHT22;2419;51.276;6.472;2024-03-29T07:57:39;8.80;99.90
4811;DHT22;2419;51.276;6.472;2024-03-29T08:00:07;8.80;99.90
4811;DHT22;2419;51.276;6.472;2024-03-29T08:02:34;8.80;99.90
4811;DHT22;2419;51.276;6.472;2024-03-29T08:05:03;8.80;99.90
4811;DHT22;2419;51.276;6.472;2024-03-29T08:07:31;8.80;99.90
4811;DHT22;2419;51.276;6.472;2024-03-29T08:09:59;8.90;99.90
4811;DHT22;2419;51.276;6.472;2024-03-29T08:12:26;9.00;99.90
4811;DHT22;2419;51.276;6.472;2024-03-29T08:14:53;9.00;99.90
4811;DHT22;2419;51.276;6.472;2024-03-29T08:17:20;9.10;99.90
4811;DHT22;2419;51.276;6.472;2024-03-29T08:19:47;9.20;99.90
4811;DHT22;2419;51.276;6.472;2024-03-29T08:22:16;9.10;99.90
4811;DHT22;2419;51.276;6.472;2024-03-29T08:24:43;9.20;99.90
4811;DHT22;2419;51.276;6.472;2024-03-29T08:27:10;9.20;99.90
4811;DHT22;2419;51.276;6.472;2024-03-29T08:29:37;9.30;99.90
4811;DHT22;2419;51.276;6.472;2024-03-29T08:32:05;9.40;99.90
4811;DHT22;2419;51.276;6.472;2024-03-29T08:34:33;9.50;99.90
4811;DHT22;2419;51.276;6.472;2024-03-29T08:37:00;9.50;99.90
4811;DHT22;2419;51.276;6.472;2024-03-29T08:39:31;9.60;99.90
4811;DHT22;2419;51.276;6.472;2024-03-29T08:41:57;9.60;99.90
4811;DHT22;2419;51.276;6.472;2024-03-29T08:44:24;9.70;99.90
4811;DHT22;2419;51.276;6.472;2024-03-29T08:46:52;9.70;99.90
4811;DHT22;2419;51.276;6.472;2024-03-29T08:49:21;9.80;99.90
4811;DHT22;2419;51.276;6.472;2024-03-29T08:51:48;9.90;99.90
4811;DHT22;2419;51.276;6.472;2024-03-29T08:54:15;10.00;99.90
4811;DHT22;2419;51.276;6.472;2024-03-29T08:56:43;10.10;99.90
4811;DHT22;2419;51.276;6.472;2024-03-29T08:59:10;10.30;99.90
4811;DHT22;2419;51.276;6.472;2024-03-29T09:01:41;10.40;99.90
4811;DHT22;2419;51.276;6.472;2024-03-29T09:04:09;10.50;99.90
4811;DHT22;2419;51.276;6.472;2024-03-29T09:06:37;10.60;99.90
4811;DHT22;2419;51.276;6.472;2024-03-29T09:09:04;10.60;99.90
4811;DHT22;2419;51.276;6.472;2024-03-29T09:11:31;10.80;99.90
4811;DHT22;2419;51.276;6.472;2024-03-29T09:14:00;11.10;99.90
4811;DHT22;2419;51.276;6.472;2024-03-29T09:16:28;11.30;99.90
4811;DHT22;2419;51.276;6.472;2024-03-29T09:18:56;11.30;99.90
4811;DHT22;2419;51.276;6.472;2024-03-29T09:21:23;11.40;99.90
4811;DHT22;2419;51.276;6.472;2024-03-29T09:23:50;11.50;99.90
4811;DHT22;2419;51.276;6.472;2024-03-29T09:26:19;11.60;99.90
4811;DHT22;2419;51.276;6.472;2024-03-29T09:28:46;11.80;99.90
4811;DHT22;2419;51.276;6.472;2024-03-29T09:31:14;12.00;99.90
4811;DHT22;2419;51.276;6.472;2024-03-29T09:33:41;12.10;99.90
4811;DHT22;2419;51.276;6.472;2024-03-29T09:36:08;12.20;99.90
4811;DHT22;2419;51.276;6.472;2024-03-29T09:38:36;12.20;99.90
4811;DHT22;2419;51.276;6.472;2024-03-29T09:41:10;12.30;99.90
4811;DHT22;2419;51.276;6.472;2024-03-29T09:43:42;12.40;99.90
4811;DHT22;2419;51.276;6.472;2024-03-29T09:46:10;12.50;99.90
4811;DHT22;2419;51.276;6.472;2024-03-29T09:48:40;12.60;99.90
4811;DHT22;2419;51.276;6.472;2024-03-29T09:51:09;12.90;99.90
4811;DHT22;2419;51.276;6.472;2024-03-29T09:53:41;13.10;99.90
4811;DHT22;2419;51.276;6.472;2024-03-29T09:56:09;13.30;99.90
4811;DHT22;2419;51.276;6.472;2024-03-29T09:58:37;13.20;99.90
4811;DHT22;2419;51.276;6.472;2024-03-29T10:01:06;13.20;99.90
4811;DHT22;2419;51.276;6.472;2024-03-29T10:03:40;12.90;99.90
4811;DHT22;2419;51.276;6.472;2024-03-29T10:06:08;12.90;99.90
4811;DHT22;2419;51.276;6.472;2024-03-29T10:08:35;12.80;99.90
4811;DHT22;2419;51.276;6.472;2024-03-29T10:11:03;12.60;99.90
4811;DHT22;2419;51.276;6.472;2024-03-29T10:13:30;12.60;99.90
4811;DHT22;2419;51.276;6.472;2024-03-29T10:15:57;12.50;99.90
4811;DHT22;2419;51.276;6.472;2024-03-29T10:18:28;12.50;99.90
4811;DHT22;2419;51.276;6.472;2024-03-29T10:21:03;12.50;99.90
4811;DHT22;2419;51.276;6.472;2024-03-29T10:23:31;12.60;99.90
4811;DHT22;2419;51.276;6.472;2024-03-29T10:25:58;12.50;99.90
4811;DHT22;2419;51.276;6.472;2024-03-29T10:28:30;12.50;99.90
4811;DHT22;2419;51.276;6.472;2024-03-29T10:30:57;12.50;99.90
4811;DHT22;2419;51.276;6.472;2024-03-29T10:33:27;12.50;99.90
4811;DHT22;2419;51.276;6.472;2024-03-29T10:35:55;12.40;99.90
4811;DHT22;2419;51.276;6.472;2024-03-29T10:38:26;12.50;99.90
4811;DHT22;2419;51.276;6.472;2024-03-29T10:40:54;13.00;99.90
4811;DHT22;2419;51.276;6.472;2024-03-29T10:43:21;13.70;99.90
4811;DHT22;2419;51.276;6.472;2024-03-29T10:45:48;14.70;99.90
4811;DHT22;2419;51.276;6.472;2024-03-29T10:48:16;15.70;99.90
4811;DHT22;2419;51.276;6.472;2024-03-29T10:50:45;15.80;99.90
4811;DHT22;2419;51.276;6.472;2024-03-29T10:53:14;15.70;99.90
4811;DHT22;2419;51.276;6.472;2024-03-29T10:55:43;15.40;99.90
4811;DHT22;2419;51.276;6.472;2024-03-29T10:58:11;15.60;99.90
4811;DHT22;2419;51.276;6.472;2024-03-29T11:00:45;15.40;99.90
4811;DHT22;2419;51.276;6.472;2024-03-29T11:03:18;15.00;99.90
4811;DHT22;2419;51.276;6.472;2024-03-29T11:05:47;14.80;99.90
4811;DHT22;2419;51.276;6.472;2024-03-29T11:08:19;14.70;99.90
4811;DHT22;2419;51.276;6.472;2024-03-29T11:10:50;14.50;99.90
4811;DHT22;2419;51.276;6.472;2024-03-29T11:13:26;14.20;99.90
4811;DHT22;2419;51.276;6.472;2024-03-29T11:15:54;14.30;99.90
4811;DHT22;2419;51.276;6.472;2024-03-29T11:18:21;14.30;99.90
4811;DHT22;2419;51.276;6.472;2024-03-29T11:20:53;14.30;99.90
4811;DHT22;2419;51.276;6.472;2024-03-29T11:23:21;14.40;99.90
4811;DHT22;2419;51.276;6.472;2024-03-29T11:25:52;14.40;99.90
4811;DHT22;2419;51.276;6.472;2024-03-29T11:28:24;14.40;99.90
4811;DHT22;2419;51.276;6.472;2024-03-29T11:30:53;14.40;99.90
4811;DHT22;2419;51.276;6.472;2024-03-29T11:33:27;14.70;99.90
4811;DHT22;2419;51.276;6.472;2024-03-29T11:35:55;14.70;99.90
4811;DHT22;2419;51.276;6.472;2024-03-29T11:38:22;14.90;99.90
4811;DHT22;2419;51.276;6.472;2024-03-29T11:41:02;15.10;99.90
4811;DHT22;2419;51.276;6.472;2024-03-29T11:43:30;15.00;99.90
4811;DHT22;2419;51.276;6.472;2024-03-29T11:45:58;14.70;99.90
4811;DHT22;2419;51.276;6.472;2024-03-29T11:48:29;14.50;99.90
4811;DHT22;2419;51.276;6.472;2024-03-29T11:50:58;14.60;99.90
4811;DHT22;2419;51.276;6.472;2024-03-29T11:53:25;14.40;99.90
4811;DHT22;2419;51.276;6.472;2024-03-29T11:55:53;14.50;99.90
4811;DHT22;2419;51.276;6.472;2024-03-29T11:58:23;14.40;99.90
4811;DHT22;2419;51.276;6.472;2024-03-29T12:00:51;14.40;99.90
4811;DHT22;2419;51.276;6.472;2024-03-29T12:03:19;14.30;99.90
4811;DHT22;2419;51.276;6.472;2024-03-29T12:05:48;14.30;99.90
4811;DHT22;2419;51.276;6.472;2024-03-29T12:08:16;14.20;99.90
4811;DHT22;2419;51.276;6.472;2024-03-29T12:10:43;14.40;99.90
4811;DHT22;2419;51.276;6.472;2024-03-29T12:13:10;14.40;99.90
4811;DHT22;2419;51.276;6.472;2024-03-29T12:15:39;14.40;99.90
4811;DHT22;2419;51.276;6.472;2024-03-29T12:18:07;14.40;99.90
4811;DHT22;2419;51.276;6.472;2024-03-29T12:20:35;14.50;99.90
4811;DHT22;2419;51.276;6.472;2024-03-29T12:23:04;14.40;99.90
4811;DHT22;2419;51.276;6.472;2024-03-29T12:25:33;14.40;99.90
4811;DHT22;2419;51.276;6.472;2024-03-29T12:28:00;14.50;99.90
4811;DHT22;2419;51.276;6.472;2024-03-29T12:30:28;14.70;99.90
4811;DHT22;2419;51.276;6.472;2024-03-29T12:33:04;14.70;99.90
4811;DHT22;2419;51.276;6.472;2024-03-29T12:35:33;14.70;99.90
4811;DHT22;2419;51.276;6.472;2024-03-29T12:38:02;14.60;99.90
4811;DHT22;2419;51.276;6.472;2024-03-29T12:40:30;14.70;99.90
4811;DHT22;2419;51.276;6.472;2024-03-29T12:43:03;15.00;99.90
4811;DHT22;2419;51.276;6.472;2024-03-29T12:45:31;15.30;99.90
4811;DHT22;2419;51.276;6.472;2024-03-29T12:47:58;15.70;99.90
4811;DHT22;2419;51.276;6.472;2024-03-29T12:50:28;16.00;99.90
4811;DHT22;2419;51.276;6.472;2024-03-29T12:52:58;16.20;99.90
4811;DHT22;2419;51.276;6.472;2024-03-29T12:55:26;17.10;99.90
4811;DHT22;2419;51.276;6.472;2024-03-29T12:57:56;17.30;99.90
4811;DHT22;2419;51.276;6.472;2024-03-29T13:00:26;17.00;99.90
4811;DHT22;2419;51.276;6.472;2024-03-29T13:02:54;17.50;99.90
4811;DHT22;2419;51.276;6.472;2024-03-29T13:05:21;16.80;99.90
4811;DHT22;2419;51.276;6.472;2024-03-29T13:07:49;16.60;99.90
4811;DHT22;2419;51.276;6.472;2024-03-29T13:10:17;16.40;99.90
4811;DHT22;2419;51.276;6.472;2024-03-29T13:12:47;16.50;99.90
4811;DHT22;2419;51.276;6.472;2024-03-29T13:15:17;16.30;99.90
4811;DHT22;2419;51.276;6.472;2024-03-29T13:17:46;15.80;99.90
4811;DHT22;2419;51.276;6.472;2024-03-29T13:20:14;15.70;99.90
4811;DHT22;2419;51.276;6.472;2024-03-29T13:22:42;15.50;99.90
4811;DHT22;2419;51.276;6.472;2024-03-29T13:25:13;15.60;99.90
4811;DHT22;2419;51.276;6.472;2024-03-29T13:27:41;15.70;99.90
4811;DHT22;2419;51.276;6.472;2024-03-29T13:30:10;15.40;99.90
4811;DHT22;2419;51.276;6.472;2024-03-29T13:32:38;15.20;99.90
4811;DHT22;2419;51.276;6.472;2024-03-29T13:35:07;15.30;99.90
4811;DHT22;2419;51.276;6.472;2024-03-29T13:37:37;15.30;99.90
4811;DHT22;2419;51.276;6.472;2024-03-29T13:40:06;15.40;99.90
4811;DHT22;2419;51.276;6.472;2024-03-29T13:42:34;15.80;99.90
4811;DHT22;2419;51.276;6.472;2024-03-29T13:45:02;16.00;99.90
4811;DHT22;2419;51.276;6.472;2024-03-29T13:47:29;16.30;99.90
4811;DHT22;2419;51.276;6.472;2024-03-29T13:49:56;16.40;99.90
4811;DHT22;2419;51.276;6.472;2024-03-29T13:52:23;16.60;99.90
4811;DHT22;2419;51.276;6.472;2024-03-29T13:54:50;16.90;99.90
4811;DHT22;2419;51.276;6.472;2024-03-29T13:57:17;16.80;99.90
4811;DHT22;2419;51.276;6.472;2024-03-29T13:59:46;16.60;99.90
4811;DHT22;2419;51.276;6.472;2024-03-29T14:02:14;16.50;99.90
4811;DHT22;2419;51.276;6.472;2024-03-29T14:04:42;16.20;99.90
4811;DHT22;2419;51.276;6.472;2024-03-29T14:07:11;16.00;99.90
4811;DHT22;2419;51.276;6.472;2024-03-29T14:09:39;15.90;99.90
4811;DHT22;2419;51.276;6.472;2024-03-29T14:12:07;16.30;99.90
4811;DHT22;2419;51.276;6.472;2024-03-29T14:14:34;16.40;99.90
4811;DHT22;2419;51.276;6.472;2024-03-29T14:17:03;16.40;99.90
4811;DHT22;2419;51.276;6.472;2024-03-29T14:19:32;16.50;99.90
4811;DHT22;2419;51.276;6.472;2024-03-29T14:22:00;16.50;99.90
4811;DHT22;2419;51.276;6.472;2024-03-29T14:24:27;16.90;99.90
4811;DHT22;2419;51.276;6.472;2024-03-29T14:26:56;16.80;99.90
4811;DHT22;2419;51.276;6.472;2024-03-29T14:29:23;16.50;99.90
4811;DHT22;2419;51.276;6.472;2024-03-29T14:31:50;16.40;99.90
4811;DHT22;2419;51.276;6.472;2024-03-29T14:34:21;16.40;99.90
4811;DHT22;2419;51.276;6.472;2024-03-29T14:36:50;16.60;99.90
4811;DHT22;2419;51.276;6.472;2024-03-29T14:39:17;16.60;99.90
4811;DHT22;2419;51.276;6.472;2024-03-29T14:41:47;16.70;99.90
4811;DHT22;2419;51.276;6.472;2024-03-29T14:44:16;16.40;99.90
4811;DHT22;2419;51.276;6.472;2024-03-29T14:46:44;16.10;99.90
4811;DHT22;2419;51.276;6.472;2024-03-29T14:49:11;16.00;99.90
4811;DHT22;2419;51.276;6.472;2024-03-29T14:51:41;16.00;99.90
4811;DHT22;2419;51.276;6.472;2024-03-29T14:54:08;16.00;99.90
4811;DHT22;2419;51.276;6.472;2024-03-29T14:56:36;16.00;99.90
4811;DHT22;2419;51.276;6.472;2024-03-29T14:59:04;16.00;99.90
4811;DHT22;2419;51.276;6.472;2024-03-29T15:01:32;15.90;99.90
4811;DHT22;2419;51.276;6.472;2024-03-29T15:03:59;15.80;99.90
4811;DHT22;2419;51.276;6.472;2024-03-29T15:06:27;15.70;99.90
4811;DHT22;2419;51.276;6.472;2024-03-29T15:08:56;15.70;99.90
4811;DHT22;2419;51.276;6.472;2024-03-29T15:11:25;15.60;99.90
4811;DHT22;2419;51.276;6.472;2024-03-29T15:13:52;15.50;99.90
4811;DHT22;2419;51.276;6.472;2024-03-29T15:16:19;15.60;99.90
4811;DHT22;2419;51.276;6.472;2024-03-29T15:18:47;15.60;99.90
4811;DHT22;2419;51.276;6.472;2024-03-29T15:21:14;15.70;99.90
4811;DHT22;2419;51.276;6.472;2024-03-29T15:23:41;15.80;99.90
4811;DHT22;2419;51.276;6.472;2024-03-29T15:26:10;16.00;99.90
4811;DHT22;2419;51.276;6.472;2024-03-29T15:28:37;16.20;99.90
4811;DHT22;2419;51.276;6.472;2024-03-29T15:31:21;16.10;99.90
4811;DHT22;2419;51.276;6.472;2024-03-29T15:33:49;16.10;99.90
4811;DHT22;2419;51.276;6.472;2024-03-29T15:36:16;16.10;99.90
4811;DHT22;2419;51.276;6.472;2024-03-29T15:38:44;16.00;99.90
4811;DHT22;2419;51.276;6.472;2024-03-29T15:41:13;15.90;99.90
4811;DHT22;2419;51.276;6.472;2024-03-29T15:43:40;15.80;99.90
4811;DHT22;2419;51.276;6.472;2024-03-29T15:46:07;15.70;99.90
4811;DHT22;2419;51.276;6.472;2024-03-29T15:48:37;15.60;99.90
4811;DHT22;2419;51.276;6.472;2024-03-29T15:51:04;15.50;99.90
4811;DHT22;2419;51.276;6.472;2024-03-29T15:53:36;15.50;99.90
4811;DHT22;2419;51.276;6.472;2024-03-29T15:56:03;15.50;99.90
4811;DHT22;2419;51.276;6.472;2024-03-29T15:58:32;15.40;99.90
4811;DHT22;2419;51.276;6.472;2024-03-29T16:00:59;15.30;99.90
4811;DHT22;2419;51.276;6.472;2024-03-29T16:03:26;15.30;99.90
4811;DHT22;2419;51.276;6.472;2024-03-29T16:05:53;15.20;99.90
4811;DHT22;2419;51.276;6.472;2024-03-29T16:08:21;15.20;99.90
4811;DHT22;2419;51.276;6.472;2024-03-29T16:10:53;15.10;99.90
4811;DHT22;2419;51.276;6.472;2024-03-29T16:13:21;15.10;99.90